sensor_id;sensor_type;location;lat;lon;timestamp;P1;durP1;ratioP1;P2;durP2;ratioP2
27622;SDS011;15041;45.334;5.622;2023-11-19T00:00:07;10.73;;;8.90;;
27622;SDS011;15041;45.334;5.622;2023-11-19T00:02:37;8.83;;;6.63;;
27622;SDS011;15041;45.334;5.622;2023-11-19T00:05:05;7.43;;;5.03;;
27622;SDS011;15041;45.334;5.622;2023-11-19T00:07:34;4.97;;;4.47;;
27622;SDS011;15041;45.334;5.622;2023-11-19T00:10:02;6.83;;;4.93;;
27622;SDS011;15041;45.334;5.622;2023-11-19T00:12:36;6.83;;;4.90;;
27622;SDS011;15041;45.334;5.622;2023-11-19T00:15:05;4.67;;;3.80;;
27622;SDS011;15041;45.334;5.622;2023-11-19T00:17:37;6.50;;;4.13;;
27622;SDS011;15041;45.334;5.622;2023-11-19T00:20:07;4.17;;;2.77;;
27622;SDS011;15041;45.334;5.622;2023-11-19T00:22:35;5.50;;;4.70;;
27622;SDS011;15041;45.334;5.622;2023-11-19T00:25:02;7.23;;;4.47;;
27622;SDS011;15041;45.334;5.622;2023-11-19T00:27:31;8.23;;;5.20;;
27622;SDS011;15041;45.334;5.622;2023-11-19T00:29:58;4.30;;;3.90;;
27622;SDS011;15041;45.334;5.622;2023-11-19T00:32:28;4.90;;;4.40;;
27622;SDS011;15041;45.334;5.622;2023-11-19T00:34:55;4.97;;;4.40;;
27622;SDS011;15041;45.334;5.622;2023-11-19T00:37:22;4.30;;;3.90;;
27622;SDS011;15041;45.334;5.622;2023-11-19T00:39:50;6.63;;;3.63;;
27622;SDS011;15041;45.334;5.622;2023-11-19T00:42:17;4.90;;;3.53;;
27622;SDS011;15041;45.334;5.622;2023-11-19T00:44:45;4.00;;;3.60;;
27622;SDS011;15041;45.334;5.622;2023-11-19T00:47:12;6.87;;;4.10;;
27622;SDS011;15041;45.334;5.622;2023-11-19T00:49:41;5.50;;;4.27;;
27622;SDS011;15041;45.334;5.622;2023-11-19T00:52:08;5.40;;;4.20;;
27622;SDS011;15041;45.334;5.622;2023-11-19T00:54:35;2.60;;;2.40;;
27622;SDS011;15041;45.334;5.622;2023-11-19T00:57:01;3.23;;;2.93;;
27622;SDS011;15041;45.334;5.622;2023-11-19T00:59:29;3.70;;;3.40;;
27622;SDS011;15041;45.334;5.622;2023-11-19T01:01:56;3.83;;;3.43;;
27622;SDS011;15041;45.334;5.622;2023-11-19T01:04:24;4.80;;;3.37;;
27622;SDS011;15041;45.334;5.622;2023-11-19T01:06:52;4.87;;;3.50;;
27622;SDS011;15041;45.334;5.622;2023-11-19T01:09:20;3.60;;;3.30;;
27622;SDS011;15041;45.334;5.622;2023-11-19T01:11:47;10.30;;;6.20;;
27622;SDS011;15041;45.334;5.622;2023-11-19T01:14:14;25.33;;;14.87;;
27622;SDS011;15041;45.334;5.622;2023-11-19T01:16:43;4.80;;;3.93;;
27622;SDS011;15041;45.334;5.622;2023-11-19T01:19:10;4.67;;;3.20;;
27622;SDS011;15041;45.334;5.622;2023-11-19T01:21:37;4.93;;;3.50;;
27622;SDS011;15041;45.334;5.622;2023-11-19T01:24:06;5.63;;;3.27;;
27622;SDS011;15041;45.334;5.622;2023-11-19T01:26:35;5.33;;;3.40;;
27622;SDS011;15041;45.334;5.622;2023-11-19T01:29:02;5.80;;;5.10;;
27622;SDS011;15041;45.334;5.622;2023-11-19T01:31:30;4.00;;;3.60;;
27622;SDS011;15041;45.334;5.622;2023-11-19T01:33:59;9.27;;;3.97;;
27622;SDS011;15041;45.334;5.622;2023-11-19T01:36:27;4.47;;;3.33;;
27622;SDS011;15041;45.334;5.622;2023-11-19T01:38:55;4.93;;;2.80;;
27622;SDS011;15041;45.334;5.622;2023-11-19T01:41:23;3.83;;;3.13;;
27622;SDS011;15041;45.334;5.622;2023-11-19T01:43:51;4.43;;;3.50;;
27622;SDS011;15041;45.334;5.622;2023-11-19T01:46:19;4.00;;;3.57;;
27622;SDS011;15041;45.334;5.622;2023-11-19T01:48:47;3.43;;;3.13;;
27622;SDS011;15041;45.334;5.622;2023-11-19T01:51:14;5.00;;;3.60;;
27622;SDS011;15041;45.334;5.622;2023-11-19T01:53:43;3.17;;;2.63;;
27622;SDS011;15041;45.334;5.622;2023-11-19T01:56:11;4.20;;;2.90;;
27622;SDS011;15041;45.334;5.622;2023-11-19T01:58:42;4.23;;;3.53;;
27622;SDS011;15041;45.334;5.622;2023-11-19T02:01:12;5.60;;;2.90;;
27622;SDS011;15041;45.334;5.622;2023-11-19T02:03:40;3.73;;;2.80;;
27622;SDS011;15041;45.334;5.622;2023-11-19T02:06:07;5.17;;;2.97;;
27622;SDS011;15041;45.334;5.622;2023-11-19T02:08:35;3.47;;;3.17;;
27622;SDS011;15041;45.334;5.622;2023-11-19T02:11:04;7.10;;;3.87;;
27622;SDS011;15041;45.334;5.622;2023-11-19T02:13:33;4.67;;;3.70;;
27622;SDS011;15041;45.334;5.622;2023-11-19T02:16:03;5.30;;;4.10;;
27622;SDS011;15041;45.334;5.622;2023-11-19T02:18:30;3.80;;;3.50;;
27622;SDS011;15041;45.334;5.622;2023-11-19T02:20:58;3.20;;;2.93;;
27622;SDS011;15041;45.334;5.622;2023-11-19T02:23:26;3.60;;;3.30;;
27622;SDS011;15041;45.334;5.622;2023-11-19T02:25:59;8.10;;;6.07;;
27622;SDS011;15041;45.334;5.622;2023-11-19T02:28:32;5.63;;;3.97;;
27622;SDS011;15041;45.334;5.622;2023-11-19T02:30:59;5.03;;;3.60;;
27622;SDS011;15041;45.334;5.622;2023-11-19T02:33:26;6.40;;;2.90;;
27622;SDS011;15041;45.334;5.622;2023-11-19T02:35:54;6.87;;;3.20;;
27622;SDS011;15041;45.334;5.622;2023-11-19T02:38:21;5.27;;;3.40;;
27622;SDS011;15041;45.334;5.622;2023-11-19T02:40:49;4.07;;;3.03;;
27622;SDS011;15041;45.334;5.622;2023-11-19T02:43:16;5.80;;;2.97;;
27622;SDS011;15041;45.334;5.622;2023-11-19T02:45:45;3.97;;;2.93;;
27622;SDS011;15041;45.334;5.622;2023-11-19T02:48:12;2.77;;;2.57;;
27622;SDS011;15041;45.334;5.622;2023-11-19T02:50:39;4.60;;;2.97;;
27622;SDS011;15041;45.334;5.622;2023-11-19T02:53:06;4.27;;;2.73;;
27622;SDS011;15041;45.334;5.622;2023-11-19T02:55:34;3.20;;;2.70;;
27622;SDS011;15041;45.334;5.622;2023-11-19T02:58:03;4.53;;;2.20;;
27622;SDS011;15041;45.334;5.622;2023-11-19T03:00:35;11.77;;;5.87;;
27622;SDS011;15041;45.334;5.622;2023-11-19T03:03:09;9.70;;;5.37;;
27622;SDS011;15041;45.334;5.622;2023-11-19T03:05:45;3.07;;;2.70;;
27622;SDS011;15041;45.334;5.622;2023-11-19T03:08:13;3.90;;;3.00;;
27622;SDS011;15041;45.334;5.622;2023-11-19T03:10:41;2.93;;;2.63;;
27622;SDS011;15041;45.334;5.622;2023-11-19T03:13:10;4.07;;;2.90;;
27622;SDS011;15041;45.334;5.622;2023-11-19T03:15:39;4.63;;;3.83;;
27622;SDS011;15041;45.334;5.622;2023-11-19T03:18:06;6.47;;;5.30;;
27622;SDS011;15041;45.334;5.622;2023-11-19T03:20:35;7.00;;;5.77;;
27622;SDS011;15041;45.334;5.622;2023-11-19T03:23:02;9.47;;;5.30;;
27622;SDS011;15041;45.334;5.622;2023-11-19T03:25:30;6.90;;;5.00;;
27622;SDS011;15041;45.334;5.622;2023-11-19T03:28:00;8.03;;;4.73;;
27622;SDS011;15041;45.334;5.622;2023-11-19T03:30:28;6.53;;;4.60;;
27622;SDS011;15041;45.334;5.622;2023-11-19T03:32:55;5.47;;;4.50;;
27622;SDS011;15041;45.334;5.622;2023-11-19T03:35:22;6.10;;;4.47;;
27622;SDS011;15041;45.334;5.622;2023-11-19T03:37:51;7.00;;;3.60;;
27622;SDS011;15041;45.334;5.622;2023-11-19T03:40:19;4.07;;;3.30;;
27622;SDS011;15041;45.334;5.622;2023-11-19T03:42:46;4.07;;;3.07;;
27622;SDS011;15041;45.334;5.622;2023-11-19T03:45:13;4.87;;;3.40;;
27622;SDS011;15041;45.334;5.622;2023-11-19T03:47:41;7.23;;;3.30;;
27622;SDS011;15041;45.334;5.622;2023-11-19T03:50:09;3.23;;;2.93;;
27622;SDS011;15041;45.334;5.622;2023-11-19T03:52:36;2.90;;;2.60;;
27622;SDS011;15041;45.334;5.622;2023-11-19T03:55:05;3.97;;;2.80;;
27622;SDS011;15041;45.334;5.622;2023-11-19T03:57:34;3.53;;;3.07;;
27622;SDS011;15041;45.334;5.622;2023-11-19T04:00:01;3.10;;;2.80;;
27622;SDS011;15041;45.334;5.622;2023-11-19T04:02:38;4.47;;;3.30;;
27622;SDS011;15041;45.334;5.622;2023-11-19T04:05:06;2.30;;;2.10;;
27622;SDS011;15041;45.334;5.622;2023-11-19T04:07:35;2.50;;;2.27;;
27622;SDS011;15041;45.334;5.622;2023-11-19T04:10:02;2.73;;;2.50;;
27622;SDS011;15041;45.334;5.622;2023-11-19T04:12:31;4.90;;;3.17;;
27622;SDS011;15041;45.334;5.622;2023-11-19T04:14:58;4.00;;;3.17;;
27622;SDS011;15041;45.334;5.622;2023-11-19T04:17:26;5.67;;;3.20;;
27622;SDS011;15041;45.334;5.622;2023-11-19T04:19:54;9.60;;;3.27;;
27622;SDS011;15041;45.334;5.622;2023-11-19T04:22:21;3.03;;;2.63;;
27622;SDS011;15041;45.334;5.622;2023-11-19T04:24:48;3.47;;;2.77;;
27622;SDS011;15041;45.334;5.622;2023-11-19T04:27:17;3.20;;;2.90;;
27622;SDS011;15041;45.334;5.622;2023-11-19T04:29:44;5.43;;;3.20;;
27622;SDS011;15041;45.334;5.622;2023-11-19T04:32:12;3.80;;;3.40;;
27622;SDS011;15041;45.334;5.622;2023-11-19T04:34:39;2.57;;;2.37;;
27622;SDS011;15041;45.334;5.622;2023-11-19T04:37:07;2.33;;;2.13;;
27622;SDS011;15041;45.334;5.622;2023-11-19T04:39:35;5.50;;;4.00;;
27622;SDS011;15041;45.334;5.622;2023-11-19T04:42:02;3.13;;;2.93;;
27622;SDS011;15041;45.334;5.622;2023-11-19T04:44:33;4.90;;;3.60;;
27622;SDS011;15041;45.334;5.622;2023-11-19T04:47:00;5.37;;;4.00;;
27622;SDS011;15041;45.334;5.622;2023-11-19T04:49:27;7.07;;;3.60;;
27622;SDS011;15041;45.334;5.622;2023-11-19T04:51:55;4.47;;;3.53;;
27622;SDS011;15041;45.334;5.622;2023-11-19T04:54:22;4.33;;;2.77;;
27622;SDS011;15041;45.334;5.622;2023-11-19T04:56:50;3.53;;;2.80;;
27622;SDS011;15041;45.334;5.622;2023-11-19T04:59:17;3.93;;;3.40;;
27622;SDS011;15041;45.334;5.622;2023-11-19T05:01:47;3.50;;;3.20;;
27622;SDS011;15041;45.334;5.622;2023-11-19T05:04:15;8.27;;;3.60;;
27622;SDS011;15041;45.334;5.622;2023-11-19T05:06:45;2.60;;;2.40;;
27622;SDS011;15041;45.334;5.622;2023-11-19T05:09:12;2.77;;;2.47;;
27622;SDS011;15041;45.334;5.622;2023-11-19T05:11:39;3.63;;;2.03;;
27622;SDS011;15041;45.334;5.622;2023-11-19T05:14:06;4.70;;;2.13;;
27622;SDS011;15041;45.334;5.622;2023-11-19T05:16:34;2.40;;;1.90;;
27622;SDS011;15041;45.334;5.622;2023-11-19T05:19:03;5.13;;;3.50;;
27622;SDS011;15041;45.334;5.622;2023-11-19T05:21:30;3.00;;;2.57;;
27622;SDS011;15041;45.334;5.622;2023-11-19T05:23:57;2.30;;;1.70;;
27622;SDS011;15041;45.334;5.622;2023-11-19T05:26:24;4.50;;;1.70;;
27622;SDS011;15041;45.334;5.622;2023-11-19T05:28:51;2.13;;;1.93;;
27622;SDS011;15041;45.334;5.622;2023-11-19T05:31:18;2.10;;;1.90;;
27622;SDS011;15041;45.334;5.622;2023-11-19T05:33:46;2.10;;;2.00;;
27622;SDS011;15041;45.334;5.622;2023-11-19T05:36:14;3.10;;;2.37;;
27622;SDS011;15041;45.334;5.622;2023-11-19T05:38:41;1.70;;;1.60;;
27622;SDS011;15041;45.334;5.622;2023-11-19T05:41:09;1.83;;;1.73;;
27622;SDS011;15041;45.334;5.622;2023-11-19T05:43:37;1.97;;;1.87;;
27622;SDS011;15041;45.334;5.622;2023-11-19T05:46:05;2.10;;;1.70;;
27622;SDS011;15041;45.334;5.622;2023-11-19T05:48:34;3.10;;;2.33;;
27622;SDS011;15041;45.334;5.622;2023-11-19T05:51:01;1.93;;;1.83;;
27622;SDS011;15041;45.334;5.622;2023-11-19T05:53:30;3.40;;;2.30;;
27622;SDS011;15041;45.334;5.622;2023-11-19T05:55:57;1.93;;;1.73;;
27622;SDS011;15041;45.334;5.622;2023-11-19T05:58:29;1.73;;;1.63;;
27622;SDS011;15041;45.334;5.622;2023-11-19T06:00:58;1.80;;;1.70;;
27622;SDS011;15041;45.334;5.622;2023-11-19T06:03:26;1.70;;;1.60;;
27622;SDS011;15041;45.334;5.622;2023-11-19T06:05:53;1.93;;;1.83;;
27622;SDS011;15041;45.334;5.622;2023-11-19T06:08:20;2.03;;;1.83;;
27622;SDS011;15041;45.334;5.622;2023-11-19T06:10:49;6.83;;;1.83;;
27622;SDS011;15041;45.334;5.622;2023-11-19T06:13:16;1.93;;;1.83;;
27622;SDS011;15041;45.334;5.622;2023-11-19T06:15:44;3.83;;;2.70;;
27622;SDS011;15041;45.334;5.622;2023-11-19T06:18:11;2.43;;;2.20;;
27622;SDS011;15041;45.334;5.622;2023-11-19T06:20:40;2.83;;;2.50;;
27622;SDS011;15041;45.334;5.622;2023-11-19T06:23:08;3.37;;;2.87;;
27622;SDS011;15041;45.334;5.622;2023-11-19T06:25:35;5.27;;;2.57;;
27622;SDS011;15041;45.334;5.622;2023-11-19T06:28:03;3.70;;;2.30;;
27622;SDS011;15041;45.334;5.622;2023-11-19T06:30:30;2.57;;;2.17;;
27622;SDS011;15041;45.334;5.622;2023-11-19T06:32:58;2.83;;;2.20;;
27622;SDS011;15041;45.334;5.622;2023-11-19T06:35:25;2.00;;;1.83;;
27622;SDS011;15041;45.334;5.622;2023-11-19T06:37:54;2.80;;;2.07;;
27622;SDS011;15041;45.334;5.622;2023-11-19T06:40:21;2.70;;;2.10;;
27622;SDS011;15041;45.334;5.622;2023-11-19T06:42:48;4.60;;;2.20;;
27622;SDS011;15041;45.334;5.622;2023-11-19T06:45:19;2.27;;;2.07;;
27622;SDS011;15041;45.334;5.622;2023-11-19T06:47:46;2.07;;;1.90;;
27622;SDS011;15041;45.334;5.622;2023-11-19T06:50:13;3.37;;;2.30;;
27622;SDS011;15041;45.334;5.622;2023-11-19T06:52:40;4.47;;;4.07;;
27622;SDS011;15041;45.334;5.622;2023-11-19T06:55:07;5.43;;;4.23;;
27622;SDS011;15041;45.334;5.622;2023-11-19T06:57:35;3.67;;;3.37;;
27622;SDS011;15041;45.334;5.622;2023-11-19T07:00:02;4.20;;;3.57;;
27622;SDS011;15041;45.334;5.622;2023-11-19T07:02:32;4.07;;;3.40;;
27622;SDS011;15041;45.334;5.622;2023-11-19T07:04:59;5.77;;;3.33;;
27622;SDS011;15041;45.334;5.622;2023-11-19T07:07:26;7.17;;;3.83;;
27622;SDS011;15041;45.334;5.622;2023-11-19T07:09:53;6.70;;;4.13;;
27622;SDS011;15041;45.334;5.622;2023-11-19T07:12:20;5.57;;;5.07;;
27622;SDS011;15041;45.334;5.622;2023-11-19T07:14:48;7.90;;;5.90;;
27622;SDS011;15041;45.334;5.622;2023-11-19T07:17:15;6.73;;;3.83;;
27622;SDS011;15041;45.334;5.622;2023-11-19T07:19:44;6.30;;;3.93;;
27622;SDS011;15041;45.334;5.622;2023-11-19T07:22:11;8.97;;;4.20;;
27622;SDS011;15041;45.334;5.622;2023-11-19T07:24:38;7.57;;;5.40;;
27622;SDS011;15041;45.334;5.622;2023-11-19T07:27:05;10.40;;;7.53;;
27622;SDS011;15041;45.334;5.622;2023-11-19T07:29:34;15.07;;;8.93;;
27622;SDS011;15041;45.334;5.622;2023-11-19T07:32:01;8.77;;;6.77;;
27622;SDS011;15041;45.334;5.622;2023-11-19T07:34:28;9.60;;;5.93;;
27622;SDS011;15041;45.334;5.622;2023-11-19T07:36:57;8.50;;;6.37;;
27622;SDS011;15041;45.334;5.622;2023-11-19T07:39:27;8.20;;;6.40;;
27622;SDS011;15041;45.334;5.622;2023-11-19T07:41:54;6.10;;;4.63;;
27622;SDS011;15041;45.334;5.622;2023-11-19T07:44:21;8.07;;;5.63;;
27622;SDS011;15041;45.334;5.622;2023-11-19T07:46:49;5.73;;;4.40;;
27622;SDS011;15041;45.334;5.622;2023-11-19T07:49:17;5.33;;;4.40;;
27622;SDS011;15041;45.334;5.622;2023-11-19T07:51:44;4.97;;;4.00;;
27622;SDS011;15041;45.334;5.622;2023-11-19T07:54:12;6.47;;;4.33;;
27622;SDS011;15041;45.334;5.622;2023-11-19T07:56:40;6.47;;;4.20;;
27622;SDS011;15041;45.334;5.622;2023-11-19T07:59:07;6.20;;;4.83;;
27622;SDS011;15041;45.334;5.622;2023-11-19T08:01:34;6.40;;;4.43;;
27622;SDS011;15041;45.334;5.622;2023-11-19T08:04:01;6.17;;;4.17;;
27622;SDS011;15041;45.334;5.622;2023-11-19T08:06:28;7.10;;;4.30;;
27622;SDS011;15041;45.334;5.622;2023-11-19T08:08:56;4.60;;;4.20;;
27622;SDS011;15041;45.334;5.622;2023-11-19T08:11:24;9.07;;;4.43;;
27622;SDS011;15041;45.334;5.622;2023-11-19T08:13:52;5.30;;;4.30;;
27622;SDS011;15041;45.334;5.622;2023-11-19T08:16:20;7.73;;;4.30;;
27622;SDS011;15041;45.334;5.622;2023-11-19T08:18:47;6.63;;;4.63;;
27622;SDS011;15041;45.334;5.622;2023-11-19T08:21:14;7.23;;;4.43;;
27622;SDS011;15041;45.334;5.622;2023-11-19T08:23:42;4.47;;;3.80;;
27622;SDS011;15041;45.334;5.622;2023-11-19T08:26:09;6.87;;;5.27;;
27622;SDS011;15041;45.334;5.622;2023-11-19T08:28:38;8.13;;;4.80;;
27622;SDS011;15041;45.334;5.622;2023-11-19T08:31:05;5.50;;;4.60;;
27622;SDS011;15041;45.334;5.622;2023-11-19T08:33:32;6.73;;;4.27;;
27622;SDS011;15041;45.334;5.622;2023-11-19T08:35:59;5.67;;;4.37;;
27622;SDS011;15041;45.334;5.622;2023-11-19T08:38:29;5.83;;;4.73;;
27622;SDS011;15041;45.334;5.622;2023-11-19T08:40:56;4.57;;;4.00;;
27622;SDS011;15041;45.334;5.622;2023-11-19T08:43:25;4.83;;;4.33;;
27622;SDS011;15041;45.334;5.622;2023-11-19T08:45:53;6.10;;;3.93;;
27622;SDS011;15041;45.334;5.622;2023-11-19T08:48:21;5.80;;;5.10;;
27622;SDS011;15041;45.334;5.622;2023-11-19T08:50:48;6.20;;;5.47;;
27622;SDS011;15041;45.334;5.622;2023-11-19T08:53:15;7.70;;;5.10;;
27622;SDS011;15041;45.334;5.622;2023-11-19T08:55:42;5.17;;;4.40;;
27622;SDS011;15041;45.334;5.622;2023-11-19T08:58:09;8.67;;;5.73;;
27622;SDS011;15041;45.334;5.622;2023-11-19T09:00:36;8.43;;;5.73;;
27622;SDS011;15041;45.334;5.622;2023-11-19T09:03:05;6.03;;;4.97;;
27622;SDS011;15041;45.334;5.622;2023-11-19T09:05:32;8.30;;;5.50;;
27622;SDS011;15041;45.334;5.622;2023-11-19T09:07:59;5.90;;;4.30;;
27622;SDS011;15041;45.334;5.622;2023-11-19T09:10:26;4.70;;;3.83;;
27622;SDS011;15041;45.334;5.622;2023-11-19T09:12:54;4.33;;;3.80;;
27622;SDS011;15041;45.334;5.622;2023-11-19T09:15:22;4.63;;;3.60;;
27622;SDS011;15041;45.334;5.622;2023-11-19T09:17:49;6.83;;;4.37;;
27622;SDS011;15041;45.334;5.622;2023-11-19T09:20:18;4.60;;;4.10;;
27622;SDS011;15041;45.334;5.622;2023-11-19T09:22:45;8.13;;;4.70;;
27622;SDS011;15041;45.334;5.622;2023-11-19T09:25:12;4.33;;;3.90;;
27622;SDS011;15041;45.334;5.622;2023-11-19T09:27:42;3.20;;;2.90;;
27622;SDS011;15041;45.334;5.622;2023-11-19T09:30:10;3.93;;;3.53;;
27622;SDS011;15041;45.334;5.622;2023-11-19T09:32:38;9.00;;;4.27;;
27622;SDS011;15041;45.334;5.622;2023-11-19T09:35:05;4.20;;;3.80;;
27622;SDS011;15041;45.334;5.622;2023-11-19T09:37:34;5.83;;;4.20;;
27622;SDS011;15041;45.334;5.622;2023-11-19T09:40:01;5.87;;;4.00;;
27622;SDS011;15041;45.334;5.622;2023-11-19T09:42:28;6.17;;;4.27;;
27622;SDS011;15041;45.334;5.622;2023-11-19T09:45:03;4.13;;;3.30;;
27622;SDS011;15041;45.334;5.622;2023-11-19T09:47:39;3.97;;;3.67;;
27622;SDS011;15041;45.334;5.622;2023-11-19T09:50:06;5.07;;;3.93;;
27622;SDS011;15041;45.334;5.622;2023-11-19T09:52:36;7.80;;;4.43;;
27622;SDS011;15041;45.334;5.622;2023-11-19T09:55:03;4.83;;;4.43;;
27622;SDS011;15041;45.334;5.622;2023-11-19T09:57:30;4.17;;;3.57;;
27622;SDS011;15041;45.334;5.622;2023-11-19T10:00:02;7.60;;;4.63;;
27622;SDS011;15041;45.334;5.622;2023-11-19T10:02:33;5.40;;;3.90;;
27622;SDS011;15041;45.334;5.622;2023-11-19T10:05:02;8.50;;;3.63;;
27622;SDS011;15041;45.334;5.622;2023-11-19T10:07:32;4.73;;;4.10;;
27622;SDS011;15041;45.334;5.622;2023-11-19T10:10:01;6.77;;;4.07;;
27622;SDS011;15041;45.334;5.622;2023-11-19T10:12:29;4.30;;;3.90;;
27622;SDS011;15041;45.334;5.622;2023-11-19T10:14:57;5.10;;;4.07;;
27622;SDS011;15041;45.334;5.622;2023-11-19T10:17:27;4.00;;;3.67;;
27622;SDS011;15041;45.334;5.622;2023-11-19T10:19:55;3.97;;;3.20;;
27622;SDS011;15041;45.334;5.622;2023-11-19T10:22:23;3.77;;;3.40;;
27622;SDS011;15041;45.334;5.622;2023-11-19T10:24:52;5.95;;;3.38;;
27622;SDS011;15041;45.334;5.622;2023-11-19T10:27:21;3.65;;;3.28;;
27622;SDS011;15041;45.334;5.622;2023-11-19T10:29:50;6.15;;;3.20;;
27622;SDS011;15041;45.334;5.622;2023-11-19T10:32:17;3.58;;;3.28;;
27622;SDS011;15041;45.334;5.622;2023-11-19T10:34:45;5.03;;;3.25;;
27622;SDS011;15041;45.334;5.622;2023-11-19T10:37:20;3.50;;;3.30;;
27622;SDS011;15041;45.334;5.622;2023-11-19T10:39:55;4.15;;;3.75;;
27622;SDS011;15041;45.334;5.622;2023-11-19T10:42:24;4.20;;;3.75;;
27622;SDS011;15041;45.334;5.622;2023-11-19T10:44:51;4.45;;;3.75;;
27622;SDS011;15041;45.334;5.622;2023-11-19T10:47:18;4.43;;;3.53;;
27622;SDS011;15041;45.334;5.622;2023-11-19T10:49:47;3.90;;;3.60;;
27622;SDS011;15041;45.334;5.622;2023-11-19T10:52:15;4.78;;;3.38;;
27622;SDS011;15041;45.334;5.622;2023-11-19T10:54:45;5.50;;;3.75;;
27622;SDS011;15041;45.334;5.622;2023-11-19T10:57:19;3.92;;;3.53;;
27622;SDS011;15041;45.334;5.622;2023-11-19T10:59:50;4.22;;;3.28;;
27622;SDS011;15041;45.334;5.622;2023-11-19T11:02:22;3.92;;;3.53;;
27622;SDS011;15041;45.334;5.622;2023-11-19T11:04:51;3.50;;;3.20;;
27622;SDS011;15041;45.334;5.622;2023-11-19T11:07:19;4.93;;;3.65;;
27622;SDS011;15041;45.334;5.622;2023-11-19T11:09:51;3.08;;;2.88;;
27622;SDS011;15041;45.334;5.622;2023-11-19T11:12:20;4.20;;;3.60;;
27622;SDS011;15041;45.334;5.622;2023-11-19T11:14:50;4.20;;;3.80;;
27622;SDS011;15041;45.334;5.622;2023-11-19T11:17:20;3.90;;;3.50;;
27622;SDS011;15041;45.334;5.622;2023-11-19T11:19:52;3.53;;;3.22;;
27622;SDS011;15041;45.334;5.622;2023-11-19T11:22:20;4.75;;;3.92;;
27622;SDS011;15041;45.334;5.622;2023-11-19T11:24:54;4.35;;;3.92;;
27622;SDS011;15041;45.334;5.622;2023-11-19T11:30:58;6.00;;;3.80;;
27622;SDS011;15041;45.334;5.622;2023-11-19T11:33:39;6.32;;;3.88;;
27622;SDS011;15041;45.334;5.622;2023-11-19T11:36:21;4.20;;;3.80;;
27622;SDS011;15041;45.334;5.622;2023-11-19T11:38:49;4.68;;;3.70;;
27622;SDS011;15041;45.334;5.622;2023-11-19T11:41:17;5.43;;;3.38;;
27622;SDS011;15041;45.334;5.622;2023-11-19T11:43:46;3.28;;;2.97;;
27622;SDS011;15041;45.334;5.622;2023-11-19T11:49:29;10.23;;;4.35;;
27622;SDS011;15041;45.334;5.622;2023-11-19T11:51:58;6.90;;;3.78;;
27622;SDS011;15041;45.334;5.622;2023-11-19T11:54:29;4.50;;;4.03;;
27622;SDS011;15041;45.334;5.622;2023-11-19T11:57:01;4.35;;;3.42;;
27622;SDS011;15041;45.334;5.622;2023-11-19T11:59:37;3.63;;;3.28;;
27622;SDS011;15041;45.334;5.622;2023-11-19T12:02:12;3.72;;;3.33;;
27622;SDS011;15041;45.334;5.622;2023-11-19T12:04:41;8.55;;;3.35;;
27622;SDS011;15041;45.334;5.622;2023-11-19T12:07:11;5.40;;;3.67;;
27622;SDS011;15041;45.334;5.622;2023-11-19T12:09:40;4.13;;;3.72;;
27622;SDS011;15041;45.334;5.622;2023-11-19T12:12:11;4.07;;;3.40;;
27622;SDS011;15041;45.334;5.622;2023-11-19T12:14:59;5.35;;;3.67;;
27622;SDS011;15041;45.334;5.622;2023-11-19T12:17:40;6.00;;;3.33;;
27622;SDS011;15041;45.334;5.622;2023-11-19T12:20:18;6.85;;;3.63;;
27622;SDS011;15041;45.334;5.622;2023-11-19T12:22:46;4.35;;;3.65;;
27622;SDS011;15041;45.334;5.622;2023-11-19T12:25:15;3.75;;;3.28;;
27622;SDS011;15041;45.334;5.622;2023-11-19T12:27:43;6.45;;;3.70;;
27622;SDS011;15041;45.334;5.622;2023-11-19T12:30:11;3.63;;;3.33;;
27622;SDS011;15041;45.334;5.622;2023-11-19T12:32:39;4.78;;;3.17;;
27622;SDS011;15041;45.334;5.622;2023-11-19T12:35:07;5.90;;;3.05;;
27622;SDS011;15041;45.334;5.622;2023-11-19T12:37:41;4.70;;;2.90;;
27622;SDS011;15041;45.334;5.622;2023-11-19T12:40:13;3.35;;;2.78;;
27622;SDS011;15041;45.334;5.622;2023-11-19T12:42:43;5.78;;;3.10;;
27622;SDS011;15041;45.334;5.622;2023-11-19T12:45:10;4.97;;;3.25;;
27622;SDS011;15041;45.334;5.622;2023-11-19T12:47:38;3.40;;;2.92;;
27622;SDS011;15041;45.334;5.622;2023-11-19T12:50:06;6.07;;;2.70;;
27622;SDS011;15041;45.334;5.622;2023-11-19T12:52:34;4.05;;;2.65;;
27622;SDS011;15041;45.334;5.622;2023-11-19T12:55:03;4.80;;;3.20;;
27622;SDS011;15041;45.334;5.622;2023-11-19T12:57:38;8.20;;;3.58;;
27622;SDS011;15041;45.334;5.622;2023-11-19T13:00:06;5.63;;;3.00;;
27622;SDS011;15041;45.334;5.622;2023-11-19T13:02:45;3.30;;;2.95;;
27622;SDS011;15041;45.334;5.622;2023-11-19T13:05:21;4.60;;;3.03;;
27622;SDS011;15041;45.334;5.622;2023-11-19T13:08:02;13.63;;;3.28;;
27622;SDS011;15041;45.334;5.622;2023-11-19T13:10:31;2.95;;;2.67;;
27622;SDS011;15041;45.334;5.622;2023-11-19T13:12:59;6.88;;;2.70;;
27622;SDS011;15041;45.334;5.622;2023-11-19T13:15:28;2.97;;;2.70;;
27622;SDS011;15041;45.334;5.622;2023-11-19T13:17:55;4.55;;;2.63;;
27622;SDS011;15041;45.334;5.622;2023-11-19T13:20:31;2.80;;;2.60;;
27622;SDS011;15041;45.334;5.622;2023-11-19T13:23:00;2.80;;;2.60;;
27622;SDS011;15041;45.334;5.622;2023-11-19T13:25:38;5.93;;;2.97;;
27622;SDS011;15041;45.334;5.622;2023-11-19T13:28:05;2.72;;;2.50;;
27622;SDS011;15041;45.334;5.622;2023-11-19T13:30:33;4.32;;;2.50;;
27622;SDS011;15041;45.334;5.622;2023-11-19T13:33:00;6.25;;;3.40;;
27622;SDS011;15041;45.334;5.622;2023-11-19T13:35:27;6.55;;;3.13;;
27622;SDS011;15041;45.334;5.622;2023-11-19T13:37:55;2.90;;;2.70;;
27622;SDS011;15041;45.334;5.622;2023-11-19T13:40:22;3.45;;;2.83;;
27622;SDS011;15041;45.334;5.622;2023-11-19T13:42:51;4.53;;;2.20;;
27622;SDS011;15041;45.334;5.622;2023-11-19T13:45:18;3.22;;;2.67;;
27622;SDS011;15041;45.334;5.622;2023-11-19T13:47:46;2.88;;;2.67;;
27622;SDS011;15041;45.334;5.622;2023-11-19T13:50:13;3.03;;;2.42;;
27622;SDS011;15041;45.334;5.622;2023-11-19T13:52:42;4.30;;;2.95;;
27622;SDS011;15041;45.334;5.622;2023-11-19T13:55:13;4.60;;;3.03;;
27622;SDS011;15041;45.334;5.622;2023-11-19T13:57:40;2.72;;;2.40;;
27622;SDS011;15041;45.334;5.622;2023-11-19T14:00:10;2.83;;;2.60;;
27622;SDS011;15041;45.334;5.622;2023-11-19T14:02:39;5.22;;;3.40;;
27622;SDS011;15041;45.334;5.622;2023-11-19T14:05:07;5.75;;;2.80;;
27622;SDS011;15041;45.334;5.622;2023-11-19T14:07:35;3.58;;;3.05;;
27622;SDS011;15041;45.334;5.622;2023-11-19T14:10:02;3.78;;;2.90;;
27622;SDS011;15041;45.334;5.622;2023-11-19T14:12:30;3.47;;;3.03;;
27622;SDS011;15041;45.334;5.622;2023-11-19T14:14:57;4.15;;;3.75;;
27622;SDS011;15041;45.334;5.622;2023-11-19T14:17:26;3.67;;;3.38;;
27622;SDS011;15041;45.334;5.622;2023-11-19T14:19:53;3.83;;;3.33;;
27622;SDS011;15041;45.334;5.622;2023-11-19T14:22:20;3.15;;;2.83;;
27622;SDS011;15041;45.334;5.622;2023-11-19T14:24:47;6.15;;;2.83;;
27622;SDS011;15041;45.334;5.622;2023-11-19T14:27:15;4.53;;;3.25;;
27622;SDS011;15041;45.334;5.622;2023-11-19T14:29:43;4.45;;;3.10;;
27622;SDS011;15041;45.334;5.622;2023-11-19T14:32:11;4.18;;;3.67;;
27622;SDS011;15041;45.334;5.622;2023-11-19T14:34:39;4.30;;;3.65;;
27622;SDS011;15041;45.334;5.622;2023-11-19T14:37:06;7.85;;;3.65;;
27622;SDS011;15041;45.334;5.622;2023-11-19T14:39:33;3.70;;;3.40;;
27622;SDS011;15041;45.334;5.622;2023-11-19T14:42:00;4.78;;;4.28;;
27622;SDS011;15041;45.334;5.622;2023-11-19T14:44:30;8.90;;;5.13;;
27622;SDS011;15041;45.334;5.622;2023-11-19T14:46:57;7.95;;;5.05;;
27622;SDS011;15041;45.334;5.622;2023-11-19T14:49:25;4.85;;;4.32;;
27622;SDS011;15041;45.334;5.622;2023-11-19T14:51:54;7.35;;;4.70;;
27622;SDS011;15041;45.334;5.622;2023-11-19T14:54:21;6.28;;;4.55;;
27622;SDS011;15041;45.334;5.622;2023-11-19T14:56:49;6.55;;;4.60;;
27622;SDS011;15041;45.334;5.622;2023-11-19T14:59:17;6.80;;;4.15;;
27622;SDS011;15041;45.334;5.622;2023-11-19T15:01:44;6.80;;;4.97;;